createdAt,value
2022-12-08T00:00:08.901Z,100819.28
2022-12-08T00:03:17.675Z,100815.00
2022-12-08T00:06:43.971Z,100816.59
2022-12-08T00:09:50.802Z,100815.59
2022-12-08T00:12:53.427Z,100825.16
2022-12-08T00:16:00.734Z,100828.47
2022-12-08T00:19:03.543Z,100832.94
2022-12-08T00:22:06.801Z,100821.00
2022-12-08T00:25:10.909Z,100825.06
2022-12-08T00:28:13.520Z,100823.47
2022-12-08T00:31:16.263Z,100825.44
2022-12-08T00:34:19.393Z,100826.53
2022-12-08T00:37:22.091Z,100824.41
2022-12-08T00:40:26.287Z,100834.31
2022-12-08T00:43:28.820Z,100829.47
2022-12-08T00:46:31.476Z,100833.53
2022-12-08T00:49:34.172Z,100835.44
2022-12-08T00:52:37.168Z,100827.78
2022-12-08T00:55:41.128Z,100833.09
2022-12-08T00:58:43.723Z,100837.38
2022-12-08T01:01:47.969Z,100832.59
2022-12-08T01:04:51.022Z,100828.06
2022-12-08T01:07:53.662Z,100834.69
2022-12-08T01:11:03.711Z,100833.50
2022-12-08T01:14:06.370Z,100825.88
2022-12-08T01:17:09.133Z,100824.47
2022-12-08T01:20:12.268Z,100829.59
2022-12-08T01:23:14.941Z,100826.41
2022-12-08T01:26:19.704Z,100823.63
2022-12-08T01:29:22.667Z,100825.81
2022-12-08T01:32:25.326Z,100822.72
2022-12-08T01:35:28.013Z,100818.09
2022-12-08T01:38:31.029Z,100820.28
2022-12-08T01:41:37.719Z,100822.72
2022-12-08T01:45:02.555Z,100820.28
2022-12-08T01:48:11.098Z,100809.38
2022-12-08T01:51:14.367Z,100817.59
2022-12-08T01:54:17.490Z,100807.91
2022-12-08T01:57:27.296Z,100793.25
2022-12-08T02:00:30.193Z,100798.09
2022-12-08T02:03:38.313Z,100786.91
2022-12-08T02:06:43.193Z,100780.13
2022-12-08T02:09:46.579Z,100786.59
2022-12-08T02:12:56.465Z,100778.00
2022-12-08T02:16:08.251Z,100792.50
2022-12-08T02:19:35.739Z,100782.16
2022-12-08T02:22:46.093Z,100785.75
2022-12-08T02:26:28.621Z,100782.66
2022-12-08T02:30:09.480Z,100789.38
2022-12-08T02:33:55.718Z,100781.72
2022-12-08T02:37:08.319Z,100782.34
2022-12-08T02:40:18.552Z,100773.47
2022-12-08T02:43:27.970Z,100771.56
2022-12-08T02:46:36.377Z,100784.41
2022-12-08T02:49:40.645Z,100778.81
2022-12-08T02:52:45.260Z,100773.94
2022-12-08T02:56:00.672Z,100776.78
2022-12-08T02:59:25.881Z,100782.16
2022-12-08T03:02:53.125Z,100776.47
2022-12-08T03:06:06.909Z,100776.47
2022-12-08T03:09:18.076Z,100770.63
2022-12-08T03:12:30.089Z,100764.00
2022-12-08T03:15:35.241Z,100760.09
2022-12-08T03:18:44.217Z,100758.47
2022-12-08T03:21:51.380Z,100758.09
2022-12-08T03:24:55.367Z,100755.00
2022-12-08T03:27:59.591Z,100754.25
2022-12-08T03:31:07.048Z,100750.94
2022-12-08T03:34:12.639Z,100750.56
2022-12-08T03:37:17.026Z,100743.91
2022-12-08T03:40:20.876Z,100736.91
2022-12-08T03:43:23.548Z,100744.81
2022-12-08T03:49:35.108Z,100746.25
2022-12-08T03:52:39.137Z,100734.84
2022-12-08T03:56:00.273Z,100729.53
2022-12-08T03:59:03.964Z,100731.72
2022-12-08T04:02:06.665Z,100737.13
2022-12-08T04:05:09.947Z,100731.41
2022-12-08T04:08:14.039Z,100735.72
2022-12-08T04:11:17.167Z,100722.16
2022-12-08T04:14:19.894Z,100734.59
2022-12-08T04:17:22.468Z,100736.66
2022-12-08T04:20:25.026Z,100740.38
2022-12-08T04:23:28.990Z,100739.22
2022-12-08T04:26:31.613Z,100753.50
2022-12-08T04:29:34.228Z,100752.97
2022-12-08T04:32:36.978Z,100755.97
2022-12-08T04:35:39.680Z,100747.25
2022-12-08T04:38:43.928Z,100743.47
2022-12-08T04:41:46.545Z,100750.56
2022-12-08T04:44:49.236Z,100742.66
2022-12-08T04:47:51.842Z,100741.13
2022-12-08T04:50:54.495Z,100736.25
2022-12-08T04:53:58.688Z,100742.50
2022-12-08T04:57:01.418Z,100740.94
2022-12-08T05:00:05.247Z,100744.56
2022-12-08T05:03:08.300Z,100743.50
2022-12-08T05:06:13.207Z,100748.38
2022-12-08T05:09:17.489Z,100743.00
2022-12-08T05:12:20.132Z,100741.63
2022-12-08T05:15:22.795Z,100748.56
2022-12-08T05:18:25.357Z,100746.50
2022-12-08T05:21:28.016Z,100739.56
2022-12-08T05:24:32.720Z,100747.03
2022-12-08T05:27:35.722Z,100743.22
2022-12-08T05:30:38.417Z,100747.00
2022-12-08T05:33:41.445Z,100745.59
2022-12-08T05:36:44.236Z,100741.00
2022-12-08T05:39:48.331Z,100744.31
2022-12-08T05:42:51.773Z,100740.31
2022-12-08T05:45:54.433Z,100740.22
2022-12-08T05:48:59.518Z,100737.84
2022-12-08T05:52:02.363Z,100745.25
2022-12-08T05:55:08.077Z,100737.38
2022-12-08T05:58:13.502Z,100738.00
2022-12-08T06:01:24.065Z,100742.75
2022-12-08T06:04:26.833Z,100738.19
2022-12-08T06:07:29.414Z,100746.09
2022-12-08T06:10:33.657Z,100751.59
2022-12-08T06:13:36.340Z,100748.44
2022-12-08T06:16:39.219Z,100745.59
2022-12-08T06:19:42.222Z,100753.16
2022-12-08T06:22:44.857Z,100743.53
2022-12-08T06:25:48.911Z,100735.50
2022-12-08T06:29:10.155Z,100744.97
2022-12-08T06:32:12.913Z,100733.78
2022-12-08T06:35:15.830Z,100736.44
2022-12-08T06:38:18.664Z,100728.56
2022-12-08T06:41:23.405Z,100730.44
2022-12-08T06:44:26.115Z,100735.50
2022-12-08T06:47:28.806Z,100744.78
2022-12-08T06:50:32.682Z,100751.13
2022-12-08T06:53:35.477Z,100745.91
2022-12-08T06:56:39.576Z,100741.97
2022-12-08T06:59:42.319Z,100742.59
2022-12-08T07:02:47.327Z,100745.25
2022-12-08T07:05:50.123Z,100738.75
2022-12-08T07:08:52.948Z,100742.97
2022-12-08T07:11:58.555Z,100752.47
2022-12-08T07:15:04.506Z,100741.06
2022-12-08T07:18:07.202Z,100754.31
2022-12-08T07:21:12.366Z,100743.78
2022-12-08T07:24:15.309Z,100740.44
2022-12-08T07:27:19.707Z,100731.78
2022-12-08T07:30:22.967Z,100728.56
2022-12-08T07:33:26.036Z,100734.97
2022-12-08T07:36:29.308Z,100742.19
2022-12-08T07:39:32.002Z,100734.56
2022-12-08T07:42:36.835Z,100738.91
2022-12-08T07:45:40.569Z,100738.41
2022-12-08T07:48:43.851Z,100732.25
2022-12-08T07:51:46.933Z,100723.34
2022-12-08T07:54:50.160Z,100735.72
2022-12-08T07:57:54.391Z,100746.00
2022-12-08T08:00:57.313Z,100743.44
2022-12-08T08:04:04.408Z,100757.47
2022-12-08T08:07:08.355Z,100751.28
2022-12-08T08:10:15.068Z,100753.25
2022-12-08T08:13:18.989Z,100755.16
2022-12-08T08:16:21.740Z,100750.16
2022-12-08T08:19:24.606Z,100749.19
2022-12-08T08:22:28.312Z,100748.72
2022-12-08T08:25:31.083Z,100741.91
2022-12-08T08:28:35.420Z,100737.88
2022-12-08T08:31:56.786Z,100736.56
2022-12-08T08:35:00.565Z,100721.81
2022-12-08T08:38:03.604Z,100726.53
2022-12-08T08:41:10.427Z,100718.41
2022-12-08T08:44:15.073Z,100694.44
2022-12-08T08:47:17.667Z,100706.06
2022-12-08T08:50:20.277Z,100706.53
2022-12-08T08:53:23.997Z,100699.13
2022-12-08T08:56:26.790Z,100693.72
2022-12-08T08:59:31.318Z,100683.94
2022-12-08T09:02:36.853Z,100682.72
2022-12-08T09:05:41.340Z,100672.00
2022-12-08T09:08:45.937Z,100655.53
2022-12-08T09:11:48.667Z,100650.63
2022-12-08T09:14:52.655Z,100644.06
2022-12-08T09:17:55.330Z,100630.22
2022-12-08T09:21:04.920Z,100626.03
2022-12-08T09:24:15.448Z,100635.09
2022-12-08T09:27:19.788Z,100642.06
2022-12-08T09:30:23.984Z,100646.03
2022-12-08T09:33:28.798Z,100650.81
2022-12-08T09:36:31.740Z,100633.66
2022-12-08T09:39:37.655Z,100632.63
2022-12-08T09:42:47.918Z,100626.66
2022-12-08T09:45:53.211Z,100629.09
2022-12-08T09:48:59.090Z,100621.88
2022-12-08T09:52:03.027Z,100615.91
2022-12-08T09:55:16.479Z,100610.97
2022-12-08T09:58:25.620Z,100616.75
2022-12-08T10:01:32.074Z,100620.03
2022-12-08T10:04:37.730Z,100623.44
2022-12-08T10:07:46.017Z,100611.59
2022-12-08T10:10:58.634Z,100604.03
2022-12-08T10:14:18.063Z,100586.88
2022-12-08T10:17:47.459Z,100577.69
2022-12-08T10:20:58.376Z,100580.09
2022-12-08T10:24:05.931Z,100578.03
2022-12-08T10:27:12.194Z,100579.44
2022-12-08T10:30:18.235Z,100558.16
2022-12-08T10:33:23.725Z,100548.56
2022-12-08T10:36:47.151Z,100534.16
2022-12-08T10:40:01.408Z,100526.69
2022-12-08T10:43:05.992Z,100501.41
2022-12-08T10:46:11.599Z,100496.94
2022-12-08T10:49:27.238Z,100498.50
2022-12-08T10:52:29.927Z,100503.69
2022-12-08T10:55:41.382Z,100505.50
2022-12-08T10:58:45.354Z,100513.63
2022-12-08T11:01:50.031Z,100513.41
2022-12-08T11:05:00.164Z,100513.41
2022-12-08T11:08:05.889Z,100516.06
2022-12-08T11:11:09.018Z,100527.84
2022-12-08T11:14:18.712Z,100510.66
2022-12-08T11:17:26.323Z,100502.50
2022-12-08T11:20:38.771Z,100491.28
2022-12-08T11:23:44.431Z,100497.09
2022-12-08T11:26:51.765Z,100499.28
2022-12-08T11:29:54.655Z,100482.53
2022-12-08T11:33:02.618Z,100463.78
2022-12-08T11:36:12.000Z,100454.94
2022-12-08T11:39:15.118Z,100442.97
2022-12-08T11:42:23.195Z,100438.16
2022-12-08T11:45:30.699Z,100431.28
2022-12-08T11:48:37.250Z,100429.16
2022-12-08T11:51:48.695Z,100428.06
2022-12-08T11:54:58.614Z,100427.75
2022-12-08T11:58:11.338Z,100449.78
2022-12-08T12:01:19.208Z,100450.63
2022-12-08T12:04:29.864Z,100438.38
2022-12-08T12:08:05.812Z,100422.84
2022-12-08T12:11:36.733Z,100424.34
2022-12-08T12:14:59.687Z,100436.72
2022-12-08T12:18:08.854Z,100445.13
2022-12-08T12:21:19.893Z,100424.19
2022-12-08T12:24:35.560Z,100429.97
2022-12-08T12:27:41.440Z,100425.56
2022-12-08T12:30:56.830Z,100429.09
2022-12-08T12:34:07.528Z,100419.06
2022-12-08T12:37:13.432Z,100406.81
2022-12-08T12:40:20.916Z,100405.53
2022-12-08T12:43:30.490Z,100410.03
2022-12-08T12:46:42.602Z,100398.56
2022-12-08T12:50:36.869Z,100396.94
2022-12-08T12:53:50.788Z,100409.75
2022-12-08T12:56:56.556Z,100411.41
2022-12-08T13:00:09.508Z,100408.00
2022-12-08T13:03:14.898Z,100406.16
2022-12-08T13:06:25.361Z,100401.06
2022-12-08T13:09:33.747Z,100398.13
2022-12-08T13:12:37.913Z,100406.34
2022-12-08T13:15:47.374Z,100392.16
2022-12-08T13:18:52.968Z,100388.75
2022-12-08T13:21:55.902Z,100385.25
2022-12-08T13:25:49.112Z,100371.56
2022-12-08T13:29:23.573Z,100377.25
2022-12-08T13:33:17.103Z,100386.16
2022-12-08T13:36:29.932Z,100384.41
2022-12-08T13:39:42.202Z,100390.19
2022-12-08T13:42:53.497Z,100396.00
2022-12-08T13:46:57.522Z,100393.38
2022-12-08T13:59:45.765Z,100382.34
2022-12-08T14:02:51.056Z,100388.88
2022-12-08T14:09:21.362Z,100390.88
2022-12-08T14:12:29.223Z,100380.84
2022-12-08T14:15:38.311Z,100379.56
2022-12-08T14:18:41.586Z,100371.91
2022-12-08T14:21:53.528Z,100359.03
2022-12-08T14:25:07.440Z,100355.78
2022-12-08T14:28:11.500Z,100368.78
2022-12-08T14:31:17.182Z,100370.81
2022-12-08T14:34:20.338Z,100382.41
2022-12-08T14:37:26.397Z,100379.00
2022-12-08T14:40:33.897Z,100362.81
2022-12-08T14:43:36.628Z,100357.69
2022-12-08T14:47:05.817Z,100356.41
2022-12-08T14:50:40.713Z,100358.97
2022-12-08T14:53:47.869Z,100366.78
2022-12-08T14:56:53.035Z,100356.72
2022-12-08T14:59:55.890Z,100365.72
2022-12-08T15:03:07.578Z,100352.56
2022-12-08T15:06:10.996Z,100353.50
2022-12-08T15:09:28.772Z,100366.13
2022-12-08T15:12:33.352Z,100363.84
2022-12-08T15:15:48.569Z,100371.09
2022-12-08T15:19:03.178Z,100371.94
2022-12-08T15:22:20.321Z,100352.97
2022-12-08T15:25:24.415Z,100352.09
2022-12-08T15:28:30.244Z,100346.28
2022-12-08T15:31:33.252Z,100337.34
2022-12-08T15:34:37.552Z,100338.13
2022-12-08T15:37:41.509Z,100345.59
2022-12-08T15:40:44.207Z,100340.66
2022-12-08T15:44:05.478Z,100335.16
2022-12-08T15:47:15.762Z,100334.13
2022-12-08T15:50:21.505Z,100329.22
2022-12-08T15:53:24.145Z,100330.38
2022-12-08T15:56:28.513Z,100340.63
2022-12-08T15:59:31.903Z,100346.16
2022-12-08T16:03:05.046Z,100337.41
2022-12-08T16:06:50.796Z,100339.41
2022-12-08T16:09:28.557Z,100326.03
2022-12-08T16:13:55.019Z,100321.56
2022-12-08T16:16:19.670Z,100320.03
2022-12-08T16:19:22.694Z,100328.81
2022-12-08T16:26:20.272Z,100319.59
2022-12-08T16:29:19.499Z,100328.03
2022-12-08T16:32:23.270Z,100328.63
2022-12-08T16:35:25.967Z,100333.88
2022-12-08T16:38:29.943Z,100342.22
2022-12-08T16:41:51.617Z,100316.38
2022-12-08T16:44:54.287Z,100316.44
2022-12-08T16:47:58.805Z,100320.13
2022-12-08T16:51:04.505Z,100316.66
2022-12-08T16:54:08.645Z,100310.09
2022-12-08T16:57:12.350Z,100320.00
2022-12-08T17:00:18.265Z,100319.41
2022-12-08T17:03:20.995Z,100320.22
2022-12-08T17:06:24.710Z,100312.56
2022-12-08T17:09:31.315Z,100306.56
2022-12-08T17:12:35.816Z,100315.75
2022-12-08T17:15:40.059Z,100313.59
2022-12-08T17:18:42.759Z,100304.75
2022-12-08T17:21:45.475Z,100309.72
2022-12-08T17:24:49.629Z,100309.47
2022-12-08T17:27:52.376Z,100309.34
2022-12-08T17:30:55.391Z,100318.59
2022-12-08T17:33:58.543Z,100333.25
2022-12-08T17:37:01.114Z,100326.47
2022-12-08T17:40:08.243Z,100330.25
2022-12-08T17:43:12.823Z,100332.97
2022-12-08T17:46:17.680Z,100338.09
2022-12-08T17:49:22.290Z,100334.13
2022-12-08T17:52:25.020Z,100323.97
2022-12-08T17:55:29.279Z,100323.34
2022-12-08T17:58:32.227Z,100332.75
2022-12-08T18:01:36.143Z,100335.84
2022-12-08T18:04:39.280Z,100336.50
2022-12-08T18:07:42.084Z,100343.91
2022-12-08T18:10:46.902Z,100344.34
2022-12-08T18:14:11.139Z,100341.38
2022-12-08T18:17:13.996Z,100349.97
2022-12-08T18:20:17.800Z,100352.19
2022-12-08T18:23:20.571Z,100339.78
2022-12-08T18:26:24.759Z,100349.22
2022-12-08T18:29:27.514Z,100339.75
2022-12-08T18:32:30.297Z,100335.34
2022-12-08T18:35:34.139Z,100333.28
2022-12-08T18:38:37.679Z,100329.84
2022-12-08T18:41:41.708Z,100325.75
2022-12-08T18:44:44.283Z,100329.03
2022-12-08T18:47:46.859Z,100324.03
2022-12-08T18:50:49.737Z,100328.03
2022-12-08T18:53:53.332Z,100330.63
2022-12-08T18:56:57.348Z,100326.28
2022-12-08T18:59:59.994Z,100325.06
2022-12-08T19:03:02.853Z,100325.06
2022-12-08T19:06:06.830Z,100327.06
2022-12-08T19:09:15.829Z,100327.66
2022-12-08T19:12:19.925Z,100325.19
2022-12-08T19:15:22.604Z,100320.53
2022-12-08T19:18:25.447Z,100317.59
2022-12-08T19:21:28.737Z,100321.06
2022-12-08T19:24:34.711Z,100333.41
2022-12-08T19:27:38.906Z,100329.34
2022-12-08T19:30:45.389Z,100330.91
2022-12-08T19:33:48.824Z,100334.47
2022-12-08T19:36:51.875Z,100329.94
2022-12-08T19:40:13.587Z,100332.66
2022-12-08T19:43:38.095Z,100331.78
2022-12-08T19:46:41.087Z,100336.66
2022-12-08T19:49:44.026Z,100341.25
2022-12-08T19:52:46.875Z,100333.06
2022-12-08T19:55:49.807Z,100337.53
2022-12-08T19:58:55.282Z,100339.94
2022-12-08T20:01:58.500Z,100343.72
2022-12-08T20:05:01.605Z,100340.13
2022-12-08T20:08:04.953Z,100337.50
2022-12-08T20:11:08.249Z,100349.69
2022-12-08T20:14:12.642Z,100343.44
2022-12-08T20:17:15.684Z,100345.69
2022-12-08T20:20:19.214Z,100339.66
2022-12-08T20:23:22.056Z,100343.72
2022-12-08T20:26:25.041Z,100335.63
2022-12-08T20:29:29.375Z,100332.41
2022-12-08T20:32:32.237Z,100337.97
2022-12-08T20:35:35.176Z,100336.19
2022-12-08T20:38:38.028Z,100340.13
2022-12-08T20:41:40.941Z,100339.09
2022-12-08T20:44:46.079Z,100340.50
2022-12-08T20:47:49.184Z,100331.03
2022-12-08T20:50:52.309Z,100346.50
2022-12-08T20:54:13.861Z,100341.59
2022-12-08T20:57:16.588Z,100343.16
2022-12-08T21:00:23.220Z,100351.94
2022-12-08T21:03:26.815Z,100338.09
2022-12-08T21:06:30.787Z,100364.19
2022-12-08T21:09:33.876Z,100356.81
2022-12-08T21:12:36.651Z,100366.59
2022-12-08T21:15:45.074Z,100366.16
2022-12-08T21:19:06.213Z,100367.50
2022-12-08T21:22:09.211Z,100370.19
2022-12-08T21:25:11.985Z,100370.72
2022-12-08T21:28:15.357Z,100374.19
2022-12-08T21:31:21.589Z,100376.09
2022-12-08T21:34:24.598Z,100376.19
2022-12-08T21:37:27.106Z,100373.06
2022-12-08T21:40:29.634Z,100376.72
2022-12-08T21:43:33.183Z,100391.44
2022-12-08T21:46:38.667Z,100396.91
2022-12-08T21:50:00.253Z,100389.06
2022-12-08T21:53:03.487Z,100396.06
2022-12-08T21:56:08.871Z,100392.66
2022-12-08T21:59:11.535Z,100387.97
2022-12-08T22:02:19.606Z,100378.88
2022-12-08T22:05:25.383Z,100382.78
2022-12-08T22:08:28.217Z,100379.88
2022-12-08T22:11:31.206Z,100372.56
2022-12-08T22:14:33.911Z,100369.97
2022-12-08T22:17:39.369Z,100377.09
2022-12-08T22:20:44.043Z,100367.09
2022-12-08T22:23:47.134Z,100369.97
2022-12-08T22:26:49.888Z,100361.22
2022-12-08T22:29:52.927Z,100355.63
2022-12-08T22:32:57.020Z,100360.25
2022-12-08T22:36:06.520Z,100365.41
2022-12-08T22:39:13.259Z,100369.88
2022-12-08T22:42:15.842Z,100354.63
2022-12-08T22:45:18.904Z,100347.06
2022-12-08T22:48:22.754Z,100351.13
2022-12-08T22:51:25.609Z,100343.22
2022-12-08T22:54:28.162Z,100375.69
2022-12-08T22:57:30.919Z,100363.47
2022-12-08T23:00:33.502Z,100365.84
2022-12-08T23:03:37.615Z,100371.84
2022-12-08T23:06:40.221Z,100361.59
2022-12-08T23:09:43.554Z,100361.28
2022-12-08T23:12:46.266Z,100363.06
2022-12-08T23:15:50.117Z,100371.84
2022-12-08T23:18:54.075Z,100364.19
2022-12-08T23:21:56.648Z,100395.66
2022-12-08T23:24:59.155Z,100393.53
2022-12-08T23:28:01.679Z,100373.38
2022-12-08T23:31:07.638Z,100371.31
2022-12-08T23:34:12.108Z,100362.78
2022-12-08T23:37:15.877Z,100360.53
2022-12-08T23:40:18.411Z,100359.41
2022-12-08T23:43:21.115Z,100348.00
2022-12-08T23:46:24.099Z,100351.75
2022-12-08T23:49:28.247Z,100365.81
2022-12-08T23:52:31.215Z,100375.56
2022-12-08T23:55:33.857Z,100390.41
2022-12-08T23:58:37.196Z,100373.38
